sensor_id;sensor_type;location;lat;lon;timestamp;temperature;humidity
17639;DHT22;8938;53.546;9.954;2023-02-01T00:01:49;9.00;99.90
17639;DHT22;8938;53.546;9.954;2023-02-01T00:04:14;9.00;99.90
17639;DHT22;8938;53.546;9.954;2023-02-01T00:06:40;8.90;99.90
17639;DHT22;8938;53.546;9.954;2023-02-01T00:09:06;8.90;99.90
17639;DHT22;8938;53.546;9.954;2023-02-01T00:11:31;8.90;99.90
17639;DHT22;8938;53.546;9.954;2023-02-01T00:13:57;9.00;99.90
17639;DHT22;8938;53.546;9.954;2023-02-01T00:16:25;9.00;99.90
17639;DHT22;8938;53.546;9.954;2023-02-01T00:18:52;9.00;99.90
17639;DHT22;8938;53.546;9.954;2023-02-01T00:21:21;9.10;99.90
17639;DHT22;8938;53.546;9.954;2023-02-01T00:23:46;9.00;99.90
17639;DHT22;8938;53.546;9.954;2023-02-01T00:26:18;9.10;99.90
17639;DHT22;8938;53.546;9.954;2023-02-01T00:28:44;9.10;99.90
17639;DHT22;8938;53.546;9.954;2023-02-01T00:31:10;9.20;99.90
17639;DHT22;8938;53.546;9.954;2023-02-01T00:33:36;9.20;99.90
17639;DHT22;8938;53.546;9.954;2023-02-01T00:36:05;9.20;99.90
17639;DHT22;8938;53.546;9.954;2023-02-01T00:38:32;9.20;99.90
17639;DHT22;8938;53.546;9.954;2023-02-01T00:41:11;9.30;99.90
17639;DHT22;8938;53.546;9.954;2023-02-01T00:43:37;9.30;99.90
17639;DHT22;8938;53.546;9.954;2023-02-01T00:46:03;9.20;99.90
17639;DHT22;8938;53.546;9.954;2023-02-01T00:48:28;9.30;99.90
17639;DHT22;8938;53.546;9.954;2023-02-01T00:50:54;9.30;99.90
17639;DHT22;8938;53.546;9.954;2023-02-01T00:53:20;9.40;99.90
17639;DHT22;8938;53.546;9.954;2023-02-01T00:55:48;9.30;99.90
17639;DHT22;8938;53.546;9.954;2023-02-01T00:58:14;9.30;99.90
17639;DHT22;8938;53.546;9.954;2023-02-01T01:00:40;9.40;99.90
17639;DHT22;8938;53.546;9.954;2023-02-01T01:03:06;9.50;99.90
17639;DHT22;8938;53.546;9.954;2023-02-01T01:05:47;9.50;99.90
17639;DHT22;8938;53.546;9.954;2023-02-01T01:08:14;9.50;99.90
17639;DHT22;8938;53.546;9.954;2023-02-01T01:10:40;9.40;99.90
17639;DHT22;8938;53.546;9.954;2023-02-01T01:13:06;9.40;99.90
17639;DHT22;8938;53.546;9.954;2023-02-01T01:15:36;9.50;99.90
17639;DHT22;8938;53.546;9.954;2023-02-01T01:18:02;9.50;99.90
17639;DHT22;8938;53.546;9.954;2023-02-01T01:20:28;9.50;99.90
17639;DHT22;8938;53.546;9.954;2023-02-01T01:22:54;9.50;99.90
17639;DHT22;8938;53.546;9.954;2023-02-01T01:25:19;9.40;99.90
17639;DHT22;8938;53.546;9.954;2023-02-01T01:27:46;9.40;99.90
17639;DHT22;8938;53.546;9.954;2023-02-01T01:30:12;9.40;99.90
17639;DHT22;8938;53.546;9.954;2023-02-01T01:32:37;9.40;99.90
17639;DHT22;8938;53.546;9.954;2023-02-01T01:35:03;9.50;99.90
17639;DHT22;8938;53.546;9.954;2023-02-01T01:37:29;9.50;99.90
17639;DHT22;8938;53.546;9.954;2023-02-01T01:39:54;9.50;99.90
17639;DHT22;8938;53.546;9.954;2023-02-01T01:42:21;9.50;99.90
17639;DHT22;8938;53.546;9.954;2023-02-01T01:47:37;9.60;99.90
17639;DHT22;8938;53.546;9.954;2023-02-01T01:50:07;9.60;99.90
17639;DHT22;8938;53.546;9.954;2023-02-01T01:52:33;9.60;99.90
17639;DHT22;8938;53.546;9.954;2023-02-01T01:55:00;9.60;99.90
17639;DHT22;8938;53.546;9.954;2023-02-01T01:57:31;9.60;99.90
17639;DHT22;8938;53.546;9.954;2023-02-01T02:00:10;9.70;99.90
17639;DHT22;8938;53.546;9.954;2023-02-01T02:02:37;9.80;99.90
17639;DHT22;8938;53.546;9.954;2023-02-01T02:05:05;9.90;99.90
17639;DHT22;8938;53.546;9.954;2023-02-01T02:07:37;9.80;99.90
17639;DHT22;8938;53.546;9.954;2023-02-01T02:10:06;9.80;99.90
17639;DHT22;8938;53.546;9.954;2023-02-01T02:12:32;9.80;99.90
17639;DHT22;8938;53.546;9.954;2023-02-01T02:14:58;9.90;99.90
17639;DHT22;8938;53.546;9.954;2023-02-01T02:17:33;9.80;99.90
17639;DHT22;8938;53.546;9.954;2023-02-01T02:32:27;9.30;99.90
17639;DHT22;8938;53.546;9.954;2023-02-01T02:34:27;9.30;99.90
17639;DHT22;8938;53.546;9.954;2023-02-01T02:37:04;9.30;99.90
17639;DHT22;8938;53.546;9.954;2023-02-01T02:39:45;9.40;99.90
17639;DHT22;8938;53.546;9.954;2023-02-01T02:42:20;9.50;99.90
17639;DHT22;8938;53.546;9.954;2023-02-01T02:48:17;9.40;99.90
17639;DHT22;8938;53.546;9.954;2023-02-01T02:50:49;9.40;99.90
17639;DHT22;8938;53.546;9.954;2023-02-01T02:54:10;9.30;99.90
17639;DHT22;8938;53.546;9.954;2023-02-01T02:56:45;9.30;99.90
17639;DHT22;8938;53.546;9.954;2023-02-01T02:59:30;9.40;99.90
17639;DHT22;8938;53.546;9.954;2023-02-01T03:02:16;9.40;99.90
17639;DHT22;8938;53.546;9.954;2023-02-01T03:05:01;9.50;99.90
17639;DHT22;8938;53.546;9.954;2023-02-01T03:13:41;9.20;99.90
17639;DHT22;8938;53.546;9.954;2023-02-01T03:19:22;9.20;99.90
17639;DHT22;8938;53.546;9.954;2023-02-01T03:21:59;9.00;99.90
17639;DHT22;8938;53.546;9.954;2023-02-01T03:24:31;9.00;99.90
17639;DHT22;8938;53.546;9.954;2023-02-01T03:27:14;8.90;99.90
17639;DHT22;8938;53.546;9.954;2023-02-01T03:32:12;8.90;99.90
17639;DHT22;8938;53.546;9.954;2023-02-01T03:34:37;8.80;99.90
17639;DHT22;8938;53.546;9.954;2023-02-01T03:37:06;8.80;99.90
17639;DHT22;8938;53.546;9.954;2023-02-01T03:39:58;8.60;99.90
17639;DHT22;8938;53.546;9.954;2023-02-01T03:42:38;8.60;99.90
17639;DHT22;8938;53.546;9.954;2023-02-01T03:45:12;8.60;99.90
17639;DHT22;8938;53.546;9.954;2023-02-01T03:47:43;8.50;99.90
17639;DHT22;8938;53.546;9.954;2023-02-01T03:50:13;8.50;99.90
17639;DHT22;8938;53.546;9.954;2023-02-01T03:52:44;8.50;99.90
17639;DHT22;8938;53.546;9.954;2023-02-01T03:55:11;8.50;99.90
17639;DHT22;8938;53.546;9.954;2023-02-01T03:57:43;8.50;99.90
17639;DHT22;8938;53.546;9.954;2023-02-01T04:00:22;8.50;99.90
17639;DHT22;8938;53.546;9.954;2023-02-01T04:02:49;8.60;99.90
17639;DHT22;8938;53.546;9.954;2023-02-01T04:05:15;8.60;99.90
17639;DHT22;8938;53.546;9.954;2023-02-01T04:07:41;8.60;99.90
17639;DHT22;8938;53.546;9.954;2023-02-01T04:10:07;8.70;99.90
17639;DHT22;8938;53.546;9.954;2023-02-01T04:12:33;8.70;99.90
17639;DHT22;8938;53.546;9.954;2023-02-01T04:14:58;8.80;99.90
17639;DHT22;8938;53.546;9.954;2023-02-01T04:17:24;8.90;99.90
17639;DHT22;8938;53.546;9.954;2023-02-01T04:19:49;8.90;99.90
17639;DHT22;8938;53.546;9.954;2023-02-01T04:22:15;8.80;99.90
17639;DHT22;8938;53.546;9.954;2023-02-01T04:24:41;8.90;99.90
17639;DHT22;8938;53.546;9.954;2023-02-01T04:27:06;8.90;99.90
17639;DHT22;8938;53.546;9.954;2023-02-01T04:29:32;8.90;99.90
17639;DHT22;8938;53.546;9.954;2023-02-01T04:31:57;8.80;99.90
17639;DHT22;8938;53.546;9.954;2023-02-01T04:34:23;8.80;99.90
17639;DHT22;8938;53.546;9.954;2023-02-01T04:36:50;8.70;99.90
17639;DHT22;8938;53.546;9.954;2023-02-01T04:39:16;8.70;99.90
17639;DHT22;8938;53.546;9.954;2023-02-01T04:41:41;8.70;99.90
17639;DHT22;8938;53.546;9.954;2023-02-01T04:44:13;8.60;99.90
17639;DHT22;8938;53.546;9.954;2023-02-01T04:46:39;8.50;99.90
17639;DHT22;8938;53.546;9.954;2023-02-01T04:49:05;8.50;99.90
17639;DHT22;8938;53.546;9.954;2023-02-01T04:51:30;8.50;99.90
17639;DHT22;8938;53.546;9.954;2023-02-01T04:53:56;8.50;99.90
17639;DHT22;8938;53.546;9.954;2023-02-01T04:56:21;8.50;99.90
17639;DHT22;8938;53.546;9.954;2023-02-01T04:58:47;8.50;99.90
17639;DHT22;8938;53.546;9.954;2023-02-01T05:01:13;8.40;99.90
17639;DHT22;8938;53.546;9.954;2023-02-01T05:03:38;8.40;99.90
17639;DHT22;8938;53.546;9.954;2023-02-01T05:06:04;8.40;99.90
17639;DHT22;8938;53.546;9.954;2023-02-01T05:08:30;8.30;99.90
17639;DHT22;8938;53.546;9.954;2023-02-01T05:10:56;8.20;99.90
17639;DHT22;8938;53.546;9.954;2023-02-01T05:13:22;8.00;99.90
17639;DHT22;8938;53.546;9.954;2023-02-01T05:16:06;7.80;99.90
17639;DHT22;8938;53.546;9.954;2023-02-01T05:18:32;7.50;99.90
17639;DHT22;8938;53.546;9.954;2023-02-01T05:20:57;7.40;99.90
17639;DHT22;8938;53.546;9.954;2023-02-01T05:23:23;7.40;99.90
17639;DHT22;8938;53.546;9.954;2023-02-01T05:25:48;7.30;99.90
17639;DHT22;8938;53.546;9.954;2023-02-01T05:28:14;7.20;99.90
17639;DHT22;8938;53.546;9.954;2023-02-01T05:30:39;7.20;99.90
17639;DHT22;8938;53.546;9.954;2023-02-01T05:33:05;7.20;99.90
17639;DHT22;8938;53.546;9.954;2023-02-01T05:35:30;7.20;99.90
17639;DHT22;8938;53.546;9.954;2023-02-01T05:37:56;7.20;99.90
17639;DHT22;8938;53.546;9.954;2023-02-01T05:40:22;7.20;99.90
17639;DHT22;8938;53.546;9.954;2023-02-01T05:42:47;7.20;99.90
17639;DHT22;8938;53.546;9.954;2023-02-01T05:45:13;7.20;99.90
17639;DHT22;8938;53.546;9.954;2023-02-01T05:47:39;7.20;99.90
17639;DHT22;8938;53.546;9.954;2023-02-01T05:50:05;7.30;99.90
17639;DHT22;8938;53.546;9.954;2023-02-01T05:52:31;7.30;99.90
17639;DHT22;8938;53.546;9.954;2023-02-01T05:54:57;7.20;99.90
17639;DHT22;8938;53.546;9.954;2023-02-01T05:57:23;7.20;99.90
17639;DHT22;8938;53.546;9.954;2023-02-01T06:02:15;7.00;99.90
17639;DHT22;8938;53.546;9.954;2023-02-01T06:04:41;7.00;99.90
17639;DHT22;8938;53.546;9.954;2023-02-01T06:07:08;7.00;99.90
17639;DHT22;8938;53.546;9.954;2023-02-01T06:12:02;7.10;99.90
17639;DHT22;8938;53.546;9.954;2023-02-01T06:14:28;7.10;99.90
17639;DHT22;8938;53.546;9.954;2023-02-01T06:16:54;7.10;99.90
17639;DHT22;8938;53.546;9.954;2023-02-01T06:19:21;7.20;99.90
17639;DHT22;8938;53.546;9.954;2023-02-01T06:21:46;7.20;99.90
17639;DHT22;8938;53.546;9.954;2023-02-01T06:24:12;7.40;99.90
17639;DHT22;8938;53.546;9.954;2023-02-01T06:26:38;7.40;99.90
17639;DHT22;8938;53.546;9.954;2023-02-01T06:29:05;7.50;99.90
17639;DHT22;8938;53.546;9.954;2023-02-01T06:31:32;7.50;99.90
17639;DHT22;8938;53.546;9.954;2023-02-01T06:33:57;7.50;99.90
17639;DHT22;8938;53.546;9.954;2023-02-01T06:36:23;7.60;99.90
17639;DHT22;8938;53.546;9.954;2023-02-01T06:38:49;7.70;99.90
17639;DHT22;8938;53.546;9.954;2023-02-01T06:41:14;7.70;99.90
17639;DHT22;8938;53.546;9.954;2023-02-01T06:43:40;7.70;99.90
17639;DHT22;8938;53.546;9.954;2023-02-01T06:46:08;7.70;99.90
17639;DHT22;8938;53.546;9.954;2023-02-01T06:48:34;7.70;99.90
17639;DHT22;8938;53.546;9.954;2023-02-01T06:51:00;7.70;99.90
17639;DHT22;8938;53.546;9.954;2023-02-01T06:53:26;7.80;99.90
17639;DHT22;8938;53.546;9.954;2023-02-01T06:55:56;7.80;99.90
17639;DHT22;8938;53.546;9.954;2023-02-01T06:58:22;7.80;99.90
17639;DHT22;8938;53.546;9.954;2023-02-01T07:00:48;7.80;99.90
17639;DHT22;8938;53.546;9.954;2023-02-01T07:03:14;7.90;99.90
17639;DHT22;8938;53.546;9.954;2023-02-01T07:05:40;7.90;99.90
17639;DHT22;8938;53.546;9.954;2023-02-01T07:08:05;7.90;99.90
17639;DHT22;8938;53.546;9.954;2023-02-01T07:10:31;8.00;99.90
17639;DHT22;8938;53.546;9.954;2023-02-01T07:12:57;8.10;99.90
17639;DHT22;8938;53.546;9.954;2023-02-01T07:15:23;8.10;99.90
17639;DHT22;8938;53.546;9.954;2023-02-01T07:17:49;8.10;99.90
17639;DHT22;8938;53.546;9.954;2023-02-01T07:20:15;8.10;99.90
17639;DHT22;8938;53.546;9.954;2023-02-01T07:22:41;8.30;99.90
17639;DHT22;8938;53.546;9.954;2023-02-01T07:25:07;8.30;99.90
17639;DHT22;8938;53.546;9.954;2023-02-01T07:27:36;8.30;99.90
17639;DHT22;8938;53.546;9.954;2023-02-01T07:30:03;8.30;99.90
17639;DHT22;8938;53.546;9.954;2023-02-01T07:32:29;8.30;99.90
17639;DHT22;8938;53.546;9.954;2023-02-01T07:34:56;8.30;99.90
17639;DHT22;8938;53.546;9.954;2023-02-01T07:37:22;8.40;99.90
17639;DHT22;8938;53.546;9.954;2023-02-01T07:39:49;8.40;99.90
17639;DHT22;8938;53.546;9.954;2023-02-01T07:42:15;8.50;99.90
17639;DHT22;8938;53.546;9.954;2023-02-01T07:44:40;8.60;99.90
17639;DHT22;8938;53.546;9.954;2023-02-01T07:49:32;8.80;99.90
17639;DHT22;8938;53.546;9.954;2023-02-01T07:51:57;8.90;99.90
17639;DHT22;8938;53.546;9.954;2023-02-01T07:54:23;8.90;99.90
17639;DHT22;8938;53.546;9.954;2023-02-01T07:56:48;9.00;99.90
17639;DHT22;8938;53.546;9.954;2023-02-01T08:01:41;9.00;99.90
17639;DHT22;8938;53.546;9.954;2023-02-01T08:04:10;8.90;99.90
17639;DHT22;8938;53.546;9.954;2023-02-01T08:06:36;8.90;99.90
17639;DHT22;8938;53.546;9.954;2023-02-01T08:09:03;9.00;99.90
17639;DHT22;8938;53.546;9.954;2023-02-01T08:11:29;9.00;99.90
17639;DHT22;8938;53.546;9.954;2023-02-01T08:13:55;9.00;99.90
17639;DHT22;8938;53.546;9.954;2023-02-01T08:16:22;9.00;99.90
17639;DHT22;8938;53.546;9.954;2023-02-01T08:18:48;9.00;99.90
17639;DHT22;8938;53.546;9.954;2023-02-01T08:21:22;9.00;99.90
17639;DHT22;8938;53.546;9.954;2023-02-01T08:23:49;9.00;99.90
17639;DHT22;8938;53.546;9.954;2023-02-01T08:28:42;9.20;99.90
17639;DHT22;8938;53.546;9.954;2023-02-01T08:31:11;9.20;99.90
17639;DHT22;8938;53.546;9.954;2023-02-01T08:33:37;9.30;99.90
17639;DHT22;8938;53.546;9.954;2023-02-01T08:36:04;9.50;99.90
17639;DHT22;8938;53.546;9.954;2023-02-01T08:38:31;9.50;99.90
17639;DHT22;8938;53.546;9.954;2023-02-01T08:40:56;9.50;99.90
17639;DHT22;8938;53.546;9.954;2023-02-01T08:43:22;9.40;99.90
17639;DHT22;8938;53.546;9.954;2023-02-01T08:45:49;9.60;99.90
17639;DHT22;8938;53.546;9.954;2023-02-01T08:48:15;9.40;99.90
17639;DHT22;8938;53.546;9.954;2023-02-01T08:50:40;9.40;99.90
17639;DHT22;8938;53.546;9.954;2023-02-01T08:53:06;9.40;99.90
17639;DHT22;8938;53.546;9.954;2023-02-01T08:55:31;9.50;99.90
17639;DHT22;8938;53.546;9.954;2023-02-01T08:57:58;9.60;99.90
17639;DHT22;8938;53.546;9.954;2023-02-01T09:00:24;9.60;99.90
17639;DHT22;8938;53.546;9.954;2023-02-01T09:02:49;9.60;99.90
17639;DHT22;8938;53.546;9.954;2023-02-01T09:05:15;9.60;99.90
17639;DHT22;8938;53.546;9.954;2023-02-01T09:07:44;9.60;99.90
17639;DHT22;8938;53.546;9.954;2023-02-01T09:10:10;9.60;99.90
17639;DHT22;8938;53.546;9.954;2023-02-01T09:12:36;9.70;99.90
17639;DHT22;8938;53.546;9.954;2023-02-01T09:15:02;9.70;99.90
17639;DHT22;8938;53.546;9.954;2023-02-01T09:17:29;9.80;99.90
17639;DHT22;8938;53.546;9.954;2023-02-01T09:19:54;9.80;99.90
17639;DHT22;8938;53.546;9.954;2023-02-01T09:22:20;9.80;99.90
17639;DHT22;8938;53.546;9.954;2023-02-01T09:24:46;9.90;99.90
17639;DHT22;8938;53.546;9.954;2023-02-01T09:27:15;9.70;99.90
17639;DHT22;8938;53.546;9.954;2023-02-01T09:32:07;9.60;99.90
17639;DHT22;8938;53.546;9.954;2023-02-01T09:34:33;9.70;99.90
17639;DHT22;8938;53.546;9.954;2023-02-01T09:36:59;9.50;99.90
17639;DHT22;8938;53.546;9.954;2023-02-01T09:39:25;9.50;99.90
17639;DHT22;8938;53.546;9.954;2023-02-01T09:42:02;9.50;99.90
17639;DHT22;8938;53.546;9.954;2023-02-01T09:47:03;9.60;99.90
17639;DHT22;8938;53.546;9.954;2023-02-01T09:49:33;9.70;99.90
17639;DHT22;8938;53.546;9.954;2023-02-01T09:52:04;9.80;99.90
17639;DHT22;8938;53.546;9.954;2023-02-01T09:54:53;9.80;99.90
17639;DHT22;8938;53.546;9.954;2023-02-01T09:57:28;9.80;99.90
17639;DHT22;8938;53.546;9.954;2023-02-01T10:00:03;9.90;99.90
17639;DHT22;8938;53.546;9.954;2023-02-01T10:02:30;10.00;99.90
17639;DHT22;8938;53.546;9.954;2023-02-01T10:04:59;10.00;99.90
17639;DHT22;8938;53.546;9.954;2023-02-01T10:07:43;10.10;99.90
17639;DHT22;8938;53.546;9.954;2023-02-01T10:16:17;10.20;99.90
17639;DHT22;8938;53.546;9.954;2023-02-01T10:27:13;10.10;99.90
17639;DHT22;8938;53.546;9.954;2023-02-01T10:29:42;10.00;99.90
17639;DHT22;8938;53.546;9.954;2023-02-01T10:32:17;10.10;99.90
17639;DHT22;8938;53.546;9.954;2023-02-01T10:34:46;10.10;99.90
17639;DHT22;8938;53.546;9.954;2023-02-01T10:37:33;10.10;99.90
17639;DHT22;8938;53.546;9.954;2023-02-01T10:42:56;10.00;99.90
17639;DHT22;8938;53.546;9.954;2023-02-01T10:45:26;9.90;99.90
17639;DHT22;8938;53.546;9.954;2023-02-01T10:47:53;9.80;99.90
17639;DHT22;8938;53.546;9.954;2023-02-01T10:50:40;9.70;99.90
17639;DHT22;8938;53.546;9.954;2023-02-01T10:53:18;9.80;99.90
17639;DHT22;8938;53.546;9.954;2023-02-01T10:58:31;9.80;99.90
17639;DHT22;8938;53.546;9.954;2023-02-01T11:01:00;9.80;99.90
17639;DHT22;8938;53.546;9.954;2023-02-01T11:06:28;9.90;99.90
17639;DHT22;8938;53.546;9.954;2023-02-01T11:08:57;9.90;99.90
17639;DHT22;8938;53.546;9.954;2023-02-01T11:11:24;9.90;99.90
17639;DHT22;8938;53.546;9.954;2023-02-01T11:14:01;9.80;99.90
17639;DHT22;8938;53.546;9.954;2023-02-01T11:16:36;9.80;99.90
17639;DHT22;8938;53.546;9.954;2023-02-01T11:19:02;9.90;99.90
17639;DHT22;8938;53.546;9.954;2023-02-01T11:21:28;9.90;99.90
17639;DHT22;8938;53.546;9.954;2023-02-01T11:23:55;9.90;99.90
17639;DHT22;8938;53.546;9.954;2023-02-01T11:26:25;9.90;99.90
17639;DHT22;8938;53.546;9.954;2023-02-01T11:29:03;9.90;99.90
17639;DHT22;8938;53.546;9.954;2023-02-01T11:31:30;10.00;99.90
17639;DHT22;8938;53.546;9.954;2023-02-01T11:34:05;10.00;99.90
17639;DHT22;8938;53.546;9.954;2023-02-01T11:36:35;10.10;99.90
17639;DHT22;8938;53.546;9.954;2023-02-01T11:44:32;10.20;99.90
17639;DHT22;8938;53.546;9.954;2023-02-01T11:49:59;10.00;99.90
17639;DHT22;8938;53.546;9.954;2023-02-01T11:52:48;10.00;99.90
17639;DHT22;8938;53.546;9.954;2023-02-01T11:58:31;9.80;99.90
17639;DHT22;8938;53.546;9.954;2023-02-01T12:07:01;9.60;99.90
17639;DHT22;8938;53.546;9.954;2023-02-01T12:14:56;9.70;99.90
17639;DHT22;8938;53.546;9.954;2023-02-01T12:18:16;9.60;99.90
17639;DHT22;8938;53.546;9.954;2023-02-01T12:23:57;9.40;99.90
17639;DHT22;8938;53.546;9.954;2023-02-01T12:29:31;9.20;99.90
17639;DHT22;8938;53.546;9.954;2023-02-01T12:32:27;9.20;99.90
17639;DHT22;8938;53.546;9.954;2023-02-01T12:41:19;9.10;99.90
17639;DHT22;8938;53.546;9.954;2023-02-01T12:44:18;8.80;99.90
17639;DHT22;8938;53.546;9.954;2023-02-01T12:52:46;8.40;99.90
17639;DHT22;8938;53.546;9.954;2023-02-01T12:55:24;8.30;99.90
17639;DHT22;8938;53.546;9.954;2023-02-01T12:58:12;8.30;99.90
17639;DHT22;8938;53.546;9.954;2023-02-01T13:00:43;8.30;99.90
17639;DHT22;8938;53.546;9.954;2023-02-01T13:09:06;8.30;99.90
17639;DHT22;8938;53.546;9.954;2023-02-01T13:11:38;8.30;99.90
17639;DHT22;8938;53.546;9.954;2023-02-01T13:14:32;8.20;99.90
17639;DHT22;8938;53.546;9.954;2023-02-01T13:17:05;8.30;99.90
17639;DHT22;8938;53.546;9.954;2023-02-01T13:22:34;8.40;99.90
17639;DHT22;8938;53.546;9.954;2023-02-01T13:25:15;8.60;99.90
17639;DHT22;8938;53.546;9.954;2023-02-01T13:27:42;8.80;99.90
17639;DHT22;8938;53.546;9.954;2023-02-01T13:32:55;8.80;99.90
17639;DHT22;8938;53.546;9.954;2023-02-01T13:41:28;9.00;99.90
17639;DHT22;8938;53.546;9.954;2023-02-01T13:43:59;9.00;99.90
17639;DHT22;8938;53.546;9.954;2023-02-01T13:46:27;8.90;99.90
17639;DHT22;8938;53.546;9.954;2023-02-01T13:48:59;8.90;99.90
17639;DHT22;8938;53.546;9.954;2023-02-01T13:51:44;8.70;99.90
17639;DHT22;8938;53.546;9.954;2023-02-01T13:56:57;8.80;99.90
17639;DHT22;8938;53.546;9.954;2023-02-01T14:02:45;8.70;99.90
17639;DHT22;8938;53.546;9.954;2023-02-01T14:05:54;8.80;99.90
17639;DHT22;8938;53.546;9.954;2023-02-01T14:08:11;8.80;99.90
17639;DHT22;8938;53.546;9.954;2023-02-01T14:10:56;8.80;99.90
17639;DHT22;8938;53.546;9.954;2023-02-01T14:13:33;9.00;99.90
17639;DHT22;8938;53.546;9.954;2023-02-01T14:23:45;9.50;99.90
17639;DHT22;8938;53.546;9.954;2023-02-01T14:26:20;9.50;99.90
17639;DHT22;8938;53.546;9.954;2023-02-01T14:28:52;9.30;99.90
17639;DHT22;8938;53.546;9.954;2023-02-01T14:34:33;9.30;99.90
17639;DHT22;8938;53.546;9.954;2023-02-01T14:37:06;9.30;99.90
17639;DHT22;8938;53.546;9.954;2023-02-01T14:42:03;9.00;99.90
17639;DHT22;8938;53.546;9.954;2023-02-01T14:44:32;8.80;99.90
17639;DHT22;8938;53.546;9.954;2023-02-01T14:47:26;8.60;99.90
17639;DHT22;8938;53.546;9.954;2023-02-01T14:50:37;8.50;99.90
17639;DHT22;8938;53.546;9.954;2023-02-01T14:55:51;8.20;99.90
17639;DHT22;8938;53.546;9.954;2023-02-01T14:58:51;8.20;99.90
17639;DHT22;8938;53.546;9.954;2023-02-01T15:01:22;8.20;99.90
17639;DHT22;8938;53.546;9.954;2023-02-01T15:06:38;8.30;99.90
17639;DHT22;8938;53.546;9.954;2023-02-01T15:09:25;8.30;99.90
17639;DHT22;8938;53.546;9.954;2023-02-01T15:14:21;8.50;99.90
17639;DHT22;8938;53.546;9.954;2023-02-01T15:16:47;8.40;99.90
17639;DHT22;8938;53.546;9.954;2023-02-01T15:19:20;8.50;99.90
17639;DHT22;8938;53.546;9.954;2023-02-01T15:21:51;8.50;99.90
17639;DHT22;8938;53.546;9.954;2023-02-01T15:24:22;8.50;99.90
17639;DHT22;8938;53.546;9.954;2023-02-01T15:26:48;8.50;99.90
17639;DHT22;8938;53.546;9.954;2023-02-01T15:29:14;8.50;99.90
17639;DHT22;8938;53.546;9.954;2023-02-01T15:31:43;8.50;99.90
17639;DHT22;8938;53.546;9.954;2023-02-01T15:34:10;8.20;99.90
17639;DHT22;8938;53.546;9.954;2023-02-01T15:36:36;8.60;99.90
17639;DHT22;8938;53.546;9.954;2023-02-01T15:39:22;8.60;99.90
17639;DHT22;8938;53.546;9.954;2023-02-01T15:41:58;8.50;99.90
17639;DHT22;8938;53.546;9.954;2023-02-01T15:44:40;8.50;99.90
17639;DHT22;8938;53.546;9.954;2023-02-01T15:47:16;8.50;99.90
17639;DHT22;8938;53.546;9.954;2023-02-01T15:49:44;8.40;99.90
17639;DHT22;8938;53.546;9.954;2023-02-01T15:52:22;8.40;99.90
17639;DHT22;8938;53.546;9.954;2023-02-01T15:54:53;8.40;99.90
17639;DHT22;8938;53.546;9.954;2023-02-01T15:57:23;8.30;99.90
17639;DHT22;8938;53.546;9.954;2023-02-01T15:59:56;8.30;99.90
17639;DHT22;8938;53.546;9.954;2023-02-01T16:02:32;8.30;99.90
17639;DHT22;8938;53.546;9.954;2023-02-01T16:04:59;8.30;99.90
17639;DHT22;8938;53.546;9.954;2023-02-01T16:07:28;8.40;99.90
17639;DHT22;8938;53.546;9.954;2023-02-01T16:09:56;8.50;99.90
17639;DHT22;8938;53.546;9.954;2023-02-01T16:12:34;8.50;99.90
17639;DHT22;8938;53.546;9.954;2023-02-01T16:15:10;8.50;99.90
17639;DHT22;8938;53.546;9.954;2023-02-01T16:17:35;8.50;99.90
17639;DHT22;8938;53.546;9.954;2023-02-01T16:20:01;8.70;99.90
17639;DHT22;8938;53.546;9.954;2023-02-01T16:22:26;8.80;99.90
17639;DHT22;8938;53.546;9.954;2023-02-01T16:24:52;8.90;99.90
17639;DHT22;8938;53.546;9.954;2023-02-01T16:27:18;8.90;99.90
17639;DHT22;8938;53.546;9.954;2023-02-01T16:29:46;8.90;99.90
17639;DHT22;8938;53.546;9.954;2023-02-01T16:32:18;9.00;99.90
17639;DHT22;8938;53.546;9.954;2023-02-01T16:34:45;9.10;99.90
17639;DHT22;8938;53.546;9.954;2023-02-01T16:37:20;9.10;99.90
17639;DHT22;8938;53.546;9.954;2023-02-01T16:39:46;9.00;99.90
17639;DHT22;8938;53.546;9.954;2023-02-01T16:42:13;9.00;99.90
17639;DHT22;8938;53.546;9.954;2023-02-01T16:44:39;9.00;99.90
17639;DHT22;8938;53.546;9.954;2023-02-01T16:47:12;9.00;99.90
17639;DHT22;8938;53.546;9.954;2023-02-01T16:49:41;9.00;99.90
17639;DHT22;8938;53.546;9.954;2023-02-01T16:52:16;9.00;99.90
17639;DHT22;8938;53.546;9.954;2023-02-01T16:54:43;9.00;99.90
17639;DHT22;8938;53.546;9.954;2023-02-01T16:57:14;9.00;99.90
17639;DHT22;8938;53.546;9.954;2023-02-01T16:59:41;9.00;99.90
17639;DHT22;8938;53.546;9.954;2023-02-01T17:02:11;9.00;99.90
17639;DHT22;8938;53.546;9.954;2023-02-01T17:04:37;9.00;99.90
17639;DHT22;8938;53.546;9.954;2023-02-01T17:07:03;9.00;99.90
17639;DHT22;8938;53.546;9.954;2023-02-01T17:09:37;9.00;99.90
17639;DHT22;8938;53.546;9.954;2023-02-01T17:12:04;9.10;99.90
17639;DHT22;8938;53.546;9.954;2023-02-01T17:14:32;9.20;99.90
17639;DHT22;8938;53.546;9.954;2023-02-01T17:17:00;9.20;99.90
17639;DHT22;8938;53.546;9.954;2023-02-01T17:19:25;9.10;99.90
17639;DHT22;8938;53.546;9.954;2023-02-01T17:21:55;9.10;99.90
17639;DHT22;8938;53.546;9.954;2023-02-01T17:24:26;9.10;99.90
17639;DHT22;8938;53.546;9.954;2023-02-01T17:26:52;9.30;99.90
17639;DHT22;8938;53.546;9.954;2023-02-01T17:29:18;9.40;99.90
17639;DHT22;8938;53.546;9.954;2023-02-01T17:31:46;9.40;99.90
17639;DHT22;8938;53.546;9.954;2023-02-01T17:34:13;9.40;99.90
17639;DHT22;8938;53.546;9.954;2023-02-01T17:36:46;9.40;99.90
17639;DHT22;8938;53.546;9.954;2023-02-01T17:39:12;9.30;99.90
17639;DHT22;8938;53.546;9.954;2023-02-01T17:41:59;9.40;99.90
17639;DHT22;8938;53.546;9.954;2023-02-01T17:44:27;9.40;99.90
17639;DHT22;8938;53.546;9.954;2023-02-01T17:46:53;9.40;99.90
17639;DHT22;8938;53.546;9.954;2023-02-01T17:49:19;9.30;99.90
17639;DHT22;8938;53.546;9.954;2023-02-01T17:51:45;9.30;99.90
17639;DHT22;8938;53.546;9.954;2023-02-01T17:54:20;9.30;99.90
17639;DHT22;8938;53.546;9.954;2023-02-01T17:56:45;9.30;99.90
17639;DHT22;8938;53.546;9.954;2023-02-01T17:59:14;9.30;99.90
17639;DHT22;8938;53.546;9.954;2023-02-01T18:01:40;9.30;99.90
17639;DHT22;8938;53.546;9.954;2023-02-01T18:04:15;9.20;99.90
17639;DHT22;8938;53.546;9.954;2023-02-01T18:06:42;9.30;99.90
17639;DHT22;8938;53.546;9.954;2023-02-01T18:09:08;9.20;99.90
17639;DHT22;8938;53.546;9.954;2023-02-01T18:11:34;9.20;99.90
17639;DHT22;8938;53.546;9.954;2023-02-01T18:13:59;9.20;99.90
17639;DHT22;8938;53.546;9.954;2023-02-01T18:16:30;9.20;99.90
17639;DHT22;8938;53.546;9.954;2023-02-01T18:18:56;9.10;99.90
17639;DHT22;8938;53.546;9.954;2023-02-01T18:21:47;9.20;99.90
17639;DHT22;8938;53.546;9.954;2023-02-01T18:24:14;9.20;99.90
17639;DHT22;8938;53.546;9.954;2023-02-01T18:26:40;9.30;99.90
17639;DHT22;8938;53.546;9.954;2023-02-01T18:29:06;9.30;99.90
17639;DHT22;8938;53.546;9.954;2023-02-01T18:31:35;9.30;99.90
17639;DHT22;8938;53.546;9.954;2023-02-01T18:34:02;9.30;99.90
17639;DHT22;8938;53.546;9.954;2023-02-01T18:36:28;9.20;99.90
17639;DHT22;8938;53.546;9.954;2023-02-01T18:38:55;9.20;99.90
17639;DHT22;8938;53.546;9.954;2023-02-01T18:41:22;9.20;99.90
17639;DHT22;8938;53.546;9.954;2023-02-01T18:43:50;9.30;99.90
17639;DHT22;8938;53.546;9.954;2023-02-01T18:46:17;9.20;99.90
17639;DHT22;8938;53.546;9.954;2023-02-01T18:48:43;9.20;99.90
17639;DHT22;8938;53.546;9.954;2023-02-01T18:51:15;9.20;99.90
17639;DHT22;8938;53.546;9.954;2023-02-01T18:53:41;9.20;99.90
17639;DHT22;8938;53.546;9.954;2023-02-01T18:56:12;9.30;99.90